Date,TemperatureHighF,TemperatureAvgF,TemperatureLowF,DewpointHighF,DewpointAvgF,DewpointLowF,HumidityHigh,HumidityAvg,HumidityLow,PressureMaxIn,PressureMinIn,WindSpeedMaxMPH,WindSpeedAvgMPH,GustSpeedMaxMPH,PrecipitationSumIn
2013-3-1,57,52,49,52,50,47,98,92,80,30.41,30.33,3,1,8,0.06
2013-3-2,55,47,37,50,44,36,98,91,75,30.33,30.11,3,0,5,0.46
2013-3-3,48,38,30,42,34,29,98,89,58,30.35,30.24,2,0,4,0.00
2013-3-4,53,39,27,39,30,26,98,74,39,30.35,29.98,2,0,4,0.01
2013-3-5,52,46,41,40,33,25,89,62,44,29.98,29.76,2,0,4,0.00
2013-3-6,43,40,36,42,38,35,96,94,89,29.95,29.63,1,0,2,0.59
2013-3-7,49,41,34,45,40,33,98,94,83,30.14,29.95,1,0,1,0.44
2013-3-8,52,37,29,44,35,28,98,91,68,30.29,30.13,1,0,4,0.00
2013-3-9,53,39,29,44,34,28,98,86,58,30.54,30.30,1,0,5,0.01
2013-3-10,46,40,32,42,38,31,97,92,82,30.55,30.47,1,0,3,0.02
2013-3-11,51,44,36,46,41,35,98,89,74,30.50,30.22,1,0,4,0.05
2013-3-12,53,51,45,49,48,44,98,89,76,30.22,30.12,4,2,9,0.01
2013-3-13,52,51,48,51,49,47,97,93,87,30.25,30.14,3,1,7,0.26
2013-3-14,52,49,46,52,48,45,99,96,88,30.20,30.07,1,0,4,0.02
2013-3-15,58,51,47,51,48,46,97,89,70,30.26,30.18,2,0,5,0.01
2013-3-16,49,46,38,46,42,35,95,87,77,30.18,29.93,4,1,10,0.11
2013-3-17,48,40,36,38,36,34,96,85,62,30.25,30.02,3,1,8,0.19
2013-3-18,50,40,33,43,37,32,96,87,60,30.30,30.16,3,1,9,0.08
2013-3-19,55,41,32,40,34,28,98,79,37,30.28,29.65,4,1,8,0.21
2013-3-20,50,44,38,48,41,34,98,88,75,30.06,29.44,5,2,11,0.51
2013-3-21,47,38,32,39,35,31,97,88,66,30.26,30.06,3,0,7,0.10
2013-3-22,44,35,29,38,33,28,98,91,67,30.43,30.26,2,0,4,0.15
2013-3-23,50,23,-90,36,14,-100,97,67,44,30.46,30.37,2,0,3,0.01
2013-3-24,54,40,29,37,30,25,96,71,33,30.37,30.17,3,0,6,0.00
2013-3-25,61,48,35,40,32,27,80,58,33,30.18,29.98,2,0,4,0.00
2013-3-26,60,50,42,44,39,37,87,69,42,30.06,29.99,2,0,5,0.00
2013-3-27,57,47,41,50,43,39,97,85,63,30.04,29.98,2,0,4,0.00
2013-3-28,61,49,39,52,44,38,98,85,62,30.20,30.04,2,0,4,0.00
2013-3-29,65,50,39,49,44,38,98,81,52,30.29,30.20,2,0,3,0.00
2013-3-30,68,50,36,48,42,35,98,78,42,30.30,30.13,3,0,5,0.00
2013-3-31,72,53,37,51,44,36,100,75,40,30.12,29.95,2,0,6,0.00